sensor_id;sensor_type;location;lat;lon;timestamp;temperature;humidity
4602;DHT22;2313;48.552;9.370;2022-11-15T00:02:07;12.10;99.90
4602;DHT22;2313;48.552;9.370;2022-11-15T00:04:33;12.10;99.90
4602;DHT22;2313;48.552;9.370;2022-11-15T00:06:59;12.20;99.90
4602;DHT22;2313;48.552;9.370;2022-11-15T00:09:24;12.20;99.90
4602;DHT22;2313;48.552;9.370;2022-11-15T00:11:51;12.20;99.90
4602;DHT22;2313;48.552;9.370;2022-11-15T00:14:17;12.20;99.90
4602;DHT22;2313;48.552;9.370;2022-11-15T00:16:43;12.40;99.90
4602;DHT22;2313;48.552;9.370;2022-11-15T00:19:09;12.30;99.90
4602;DHT22;2313;48.552;9.370;2022-11-15T00:21:34;12.30;99.90
4602;DHT22;2313;48.552;9.370;2022-11-15T00:24:00;12.20;99.90
4602;DHT22;2313;48.552;9.370;2022-11-15T00:26:26;12.30;99.90
4602;DHT22;2313;48.552;9.370;2022-11-15T00:28:52;12.30;99.90
4602;DHT22;2313;48.552;9.370;2022-11-15T00:31:18;12.20;99.90
4602;DHT22;2313;48.552;9.370;2022-11-15T00:33:44;12.20;99.90
4602;DHT22;2313;48.552;9.370;2022-11-15T00:36:10;12.20;99.90
4602;DHT22;2313;48.552;9.370;2022-11-15T00:38:38;12.10;99.90
4602;DHT22;2313;48.552;9.370;2022-11-15T00:41:05;12.00;99.90
4602;DHT22;2313;48.552;9.370;2022-11-15T00:43:31;11.90;99.90
4602;DHT22;2313;48.552;9.370;2022-11-15T00:45:57;11.80;99.90
4602;DHT22;2313;48.552;9.370;2022-11-15T00:48:23;11.80;99.90
4602;DHT22;2313;48.552;9.370;2022-11-15T00:50:49;11.70;99.90
4602;DHT22;2313;48.552;9.370;2022-11-15T00:53:16;11.60;99.90
4602;DHT22;2313;48.552;9.370;2022-11-15T00:55:41;11.70;99.90
4602;DHT22;2313;48.552;9.370;2022-11-15T00:58:07;11.70;99.90
4602;DHT22;2313;48.552;9.370;2022-11-15T01:00:33;11.50;99.90
4602;DHT22;2313;48.552;9.370;2022-11-15T01:03:00;11.50;99.90
4602;DHT22;2313;48.552;9.370;2022-11-15T01:05:26;11.40;99.90
4602;DHT22;2313;48.552;9.370;2022-11-15T01:07:55;11.40;99.90
4602;DHT22;2313;48.552;9.370;2022-11-15T01:10:22;11.40;99.90
4602;DHT22;2313;48.552;9.370;2022-11-15T01:12:49;11.40;99.90
4602;DHT22;2313;48.552;9.370;2022-11-15T01:15:14;11.40;99.90
4602;DHT22;2313;48.552;9.370;2022-11-15T01:17:40;11.40;99.90
4602;DHT22;2313;48.552;9.370;2022-11-15T01:20:06;11.40;99.90
4602;DHT22;2313;48.552;9.370;2022-11-15T01:22:32;11.40;99.90
4602;DHT22;2313;48.552;9.370;2022-11-15T01:24:58;11.40;99.90
4602;DHT22;2313;48.552;9.370;2022-11-15T01:27:23;11.40;99.90
4602;DHT22;2313;48.552;9.370;2022-11-15T01:29:49;11.40;99.90
4602;DHT22;2313;48.552;9.370;2022-11-15T01:32:15;11.40;99.90
4602;DHT22;2313;48.552;9.370;2022-11-15T01:34:41;11.40;99.90
4602;DHT22;2313;48.552;9.370;2022-11-15T01:37:07;11.30;99.90
4602;DHT22;2313;48.552;9.370;2022-11-15T01:39:33;11.30;99.90
4602;DHT22;2313;48.552;9.370;2022-11-15T01:41:59;11.30;99.90
4602;DHT22;2313;48.552;9.370;2022-11-15T01:47:06;11.40;99.90
4602;DHT22;2313;48.552;9.370;2022-11-15T01:49:35;11.40;99.90
4602;DHT22;2313;48.552;9.370;2022-11-15T01:52:05;11.30;99.90
4602;DHT22;2313;48.552;9.370;2022-11-15T01:54:33;11.30;99.90
4602;DHT22;2313;48.552;9.370;2022-11-15T01:57:05;11.30;99.90
4602;DHT22;2313;48.552;9.370;2022-11-15T01:59:32;11.30;99.90
4602;DHT22;2313;48.552;9.370;2022-11-15T02:01:58;11.20;99.90
4602;DHT22;2313;48.552;9.370;2022-11-15T02:04:32;11.20;99.90
4602;DHT22;2313;48.552;9.370;2022-11-15T02:06:59;11.20;99.90
4602;DHT22;2313;48.552;9.370;2022-11-15T02:09:27;11.20;99.90
4602;DHT22;2313;48.552;9.370;2022-11-15T02:11:53;11.20;99.90
4602;DHT22;2313;48.552;9.370;2022-11-15T02:14:20;11.20;99.90
4602;DHT22;2313;48.552;9.370;2022-11-15T02:17:07;11.20;99.90
4602;DHT22;2313;48.552;9.370;2022-11-15T02:28:06;11.10;99.90
4602;DHT22;2313;48.552;9.370;2022-11-15T02:36:04;11.10;99.90
4602;DHT22;2313;48.552;9.370;2022-11-15T02:38:57;11.10;99.90
4602;DHT22;2313;48.552;9.370;2022-11-15T02:41:32;11.20;99.90
4602;DHT22;2313;48.552;9.370;2022-11-15T02:44:14;11.30;99.90
4602;DHT22;2313;48.552;9.370;2022-11-15T02:46:50;11.40;99.90
4602;DHT22;2313;48.552;9.370;2022-11-15T02:49:36;11.40;99.90
4602;DHT22;2313;48.552;9.370;2022-11-15T02:52:03;11.40;99.90
4602;DHT22;2313;48.552;9.370;2022-11-15T02:54:31;11.40;99.90
4602;DHT22;2313;48.552;9.370;2022-11-15T02:57:04;11.40;99.90
4602;DHT22;2313;48.552;9.370;2022-11-15T02:59:44;11.40;99.90
4602;DHT22;2313;48.552;9.370;2022-11-15T03:05:11;11.30;99.90
4602;DHT22;2313;48.552;9.370;2022-11-15T03:07:46;11.30;99.90
4602;DHT22;2313;48.552;9.370;2022-11-15T03:10:26;11.30;99.90
4602;DHT22;2313;48.552;9.370;2022-11-15T03:13:26;11.40;99.90
4602;DHT22;2313;48.552;9.370;2022-11-15T03:16:02;11.40;99.90
4602;DHT22;2313;48.552;9.370;2022-11-15T03:19:04;11.40;99.90
4602;DHT22;2313;48.552;9.370;2022-11-15T03:21:31;11.60;99.90
4602;DHT22;2313;48.552;9.370;2022-11-15T03:24:00;11.50;99.90
4602;DHT22;2313;48.552;9.370;2022-11-15T03:26:28;11.50;99.90
4602;DHT22;2313;48.552;9.370;2022-11-15T03:28:58;11.40;99.90
4602;DHT22;2313;48.552;9.370;2022-11-15T03:31:28;11.40;99.90
4602;DHT22;2313;48.552;9.370;2022-11-15T03:37:22;11.20;99.90
4602;DHT22;2313;48.552;9.370;2022-11-15T03:39:50;11.20;99.90
4602;DHT22;2313;48.552;9.370;2022-11-15T03:42:38;11.20;99.90
4602;DHT22;2313;48.552;9.370;2022-11-15T03:45:18;11.20;99.90
4602;DHT22;2313;48.552;9.370;2022-11-15T03:48:21;11.30;99.90
4602;DHT22;2313;48.552;9.370;2022-11-15T03:50:44;11.40;99.90
4602;DHT22;2313;48.552;9.370;2022-11-15T03:53:10;11.40;99.90
4602;DHT22;2313;48.552;9.370;2022-11-15T03:55:37;11.40;99.90
4602;DHT22;2313;48.552;9.370;2022-11-15T03:58:03;11.40;99.90
4602;DHT22;2313;48.552;9.370;2022-11-15T04:00:29;11.40;99.90
4602;DHT22;2313;48.552;9.370;2022-11-15T04:02:55;11.40;99.90
4602;DHT22;2313;48.552;9.370;2022-11-15T04:05:20;11.40;99.90
4602;DHT22;2313;48.552;9.370;2022-11-15T04:07:46;11.40;99.90
4602;DHT22;2313;48.552;9.370;2022-11-15T04:10:12;11.30;99.90
4602;DHT22;2313;48.552;9.370;2022-11-15T04:12:41;11.30;99.90
4602;DHT22;2313;48.552;9.370;2022-11-15T04:15:09;11.40;99.90
4602;DHT22;2313;48.552;9.370;2022-11-15T04:17:44;11.40;99.90
4602;DHT22;2313;48.552;9.370;2022-11-15T04:20:18;11.30;99.90
4602;DHT22;2313;48.552;9.370;2022-11-15T04:23:06;11.20;99.90
4602;DHT22;2313;48.552;9.370;2022-11-15T04:25:52;11.20;99.90
4602;DHT22;2313;48.552;9.370;2022-11-15T04:28:19;11.10;99.90
4602;DHT22;2313;48.552;9.370;2022-11-15T04:30:45;11.10;99.90
4602;DHT22;2313;48.552;9.370;2022-11-15T04:33:11;11.10;99.90
4602;DHT22;2313;48.552;9.370;2022-11-15T04:35:37;11.00;99.90
4602;DHT22;2313;48.552;9.370;2022-11-15T04:38:04;11.00;99.90
4602;DHT22;2313;48.552;9.370;2022-11-15T04:40:30;11.00;99.90
4602;DHT22;2313;48.552;9.370;2022-11-15T04:42:56;10.90;99.90
4602;DHT22;2313;48.552;9.370;2022-11-15T04:45:22;10.80;99.90
4602;DHT22;2313;48.552;9.370;2022-11-15T04:47:48;10.60;99.90
4602;DHT22;2313;48.552;9.370;2022-11-15T04:50:15;10.30;99.90
4602;DHT22;2313;48.552;9.370;2022-11-15T04:52:42;10.10;99.90
4602;DHT22;2313;48.552;9.370;2022-11-15T04:55:11;9.90;99.90
4602;DHT22;2313;48.552;9.370;2022-11-15T04:57:37;9.70;99.90
4602;DHT22;2313;48.552;9.370;2022-11-15T05:00:10;9.60;99.90
4602;DHT22;2313;48.552;9.370;2022-11-15T05:02:36;9.60;99.90
4602;DHT22;2313;48.552;9.370;2022-11-15T05:05:20;9.60;99.90
4602;DHT22;2313;48.552;9.370;2022-11-15T05:07:46;9.60;99.90
4602;DHT22;2313;48.552;9.370;2022-11-15T05:10:12;9.50;99.90
4602;DHT22;2313;48.552;9.370;2022-11-15T05:12:37;9.20;99.90
4602;DHT22;2313;48.552;9.370;2022-11-15T05:15:03;9.00;99.90
4602;DHT22;2313;48.552;9.370;2022-11-15T05:17:29;8.80;99.90
4602;DHT22;2313;48.552;9.370;2022-11-15T05:19:55;8.50;99.90
4602;DHT22;2313;48.552;9.370;2022-11-15T05:22:21;8.30;99.90
4602;DHT22;2313;48.552;9.370;2022-11-15T05:24:46;8.20;99.90
4602;DHT22;2313;48.552;9.370;2022-11-15T05:27:12;8.10;99.90
4602;DHT22;2313;48.552;9.370;2022-11-15T05:29:38;8.00;99.90
4602;DHT22;2313;48.552;9.370;2022-11-15T05:32:05;7.90;99.90
4602;DHT22;2313;48.552;9.370;2022-11-15T05:34:32;8.00;99.90
4602;DHT22;2313;48.552;9.370;2022-11-15T05:36:58;8.00;99.90
4602;DHT22;2313;48.552;9.370;2022-11-15T05:39:24;8.00;99.90
4602;DHT22;2313;48.552;9.370;2022-11-15T05:41:59;7.90;99.90
4602;DHT22;2313;48.552;9.370;2022-11-15T05:44:26;7.90;99.90
4602;DHT22;2313;48.552;9.370;2022-11-15T05:46:54;8.00;99.90
4602;DHT22;2313;48.552;9.370;2022-11-15T05:49:24;8.20;99.90
4602;DHT22;2313;48.552;9.370;2022-11-15T05:51:53;8.70;99.90
4602;DHT22;2313;48.552;9.370;2022-11-15T05:54:20;9.20;99.90
4602;DHT22;2313;48.552;9.370;2022-11-15T05:56:46;9.60;99.90
4602;DHT22;2313;48.552;9.370;2022-11-15T05:59:13;10.10;99.90
4602;DHT22;2313;48.552;9.370;2022-11-15T06:01:39;10.20;99.90
4602;DHT22;2313;48.552;9.370;2022-11-15T06:04:05;10.30;99.90
4602;DHT22;2313;48.552;9.370;2022-11-15T06:06:31;10.40;99.90
4602;DHT22;2313;48.552;9.370;2022-11-15T06:08:57;10.30;99.90
4602;DHT22;2313;48.552;9.370;2022-11-15T06:11:22;10.40;99.90
4602;DHT22;2313;48.552;9.370;2022-11-15T06:13:48;10.40;99.90
4602;DHT22;2313;48.552;9.370;2022-11-15T06:16:14;10.50;99.90
4602;DHT22;2313;48.552;9.370;2022-11-15T06:18:39;10.50;99.90
4602;DHT22;2313;48.552;9.370;2022-11-15T06:21:05;10.50;99.90
4602;DHT22;2313;48.552;9.370;2022-11-15T06:23:34;10.40;99.90
4602;DHT22;2313;48.552;9.370;2022-11-15T06:26:01;10.40;99.90
4602;DHT22;2313;48.552;9.370;2022-11-15T06:28:30;10.30;99.90
4602;DHT22;2313;48.552;9.370;2022-11-15T06:31:09;10.30;99.90
4602;DHT22;2313;48.552;9.370;2022-11-15T06:33:36;10.40;99.90
4602;DHT22;2313;48.552;9.370;2022-11-15T06:36:07;10.30;99.90
4602;DHT22;2313;48.552;9.370;2022-11-15T06:38:34;10.30;99.90
4602;DHT22;2313;48.552;9.370;2022-11-15T06:41:04;10.30;99.90
4602;DHT22;2313;48.552;9.370;2022-11-15T06:43:31;10.20;99.90
4602;DHT22;2313;48.552;9.370;2022-11-15T06:46:01;10.20;99.90
4602;DHT22;2313;48.552;9.370;2022-11-15T06:48:27;10.20;99.90
4602;DHT22;2313;48.552;9.370;2022-11-15T06:50:58;10.30;99.90
4602;DHT22;2313;48.552;9.370;2022-11-15T06:53:25;10.30;99.90
4602;DHT22;2313;48.552;9.370;2022-11-15T06:55:51;10.30;99.90
4602;DHT22;2313;48.552;9.370;2022-11-15T06:58:17;10.40;99.90
4602;DHT22;2313;48.552;9.370;2022-11-15T07:00:43;10.30;99.90
4602;DHT22;2313;48.552;9.370;2022-11-15T07:03:09;10.30;99.90
4602;DHT22;2313;48.552;9.370;2022-11-15T07:05:35;10.40;99.90
4602;DHT22;2313;48.552;9.370;2022-11-15T07:08:02;10.50;99.90
4602;DHT22;2313;48.552;9.370;2022-11-15T07:10:28;10.50;99.90
4602;DHT22;2313;48.552;9.370;2022-11-15T07:12:55;10.50;99.90
4602;DHT22;2313;48.552;9.370;2022-11-15T07:15:23;10.60;99.90
4602;DHT22;2313;48.552;9.370;2022-11-15T07:17:49;10.80;99.90
4602;DHT22;2313;48.552;9.370;2022-11-15T07:20:16;10.70;99.90
4602;DHT22;2313;48.552;9.370;2022-11-15T07:22:43;10.80;99.90
4602;DHT22;2313;48.552;9.370;2022-11-15T07:25:10;10.80;99.90
4602;DHT22;2313;48.552;9.370;2022-11-15T07:27:36;10.80;99.90
4602;DHT22;2313;48.552;9.370;2022-11-15T07:30:03;10.90;99.90
4602;DHT22;2313;48.552;9.370;2022-11-15T07:32:29;11.00;99.90
4602;DHT22;2313;48.552;9.370;2022-11-15T07:34:54;11.10;99.90
4602;DHT22;2313;48.552;9.370;2022-11-15T07:37:20;11.20;99.90
4602;DHT22;2313;48.552;9.370;2022-11-15T07:39:46;11.20;99.90
4602;DHT22;2313;48.552;9.370;2022-11-15T07:42:11;11.30;99.90
4602;DHT22;2313;48.552;9.370;2022-11-15T07:44:55;11.40;99.90
4602;DHT22;2313;48.552;9.370;2022-11-15T07:47:21;11.50;99.90
4602;DHT22;2313;48.552;9.370;2022-11-15T07:49:47;11.50;99.90
4602;DHT22;2313;48.552;9.370;2022-11-15T07:52:13;11.40;99.90
4602;DHT22;2313;48.552;9.370;2022-11-15T07:54:39;11.40;99.90
4602;DHT22;2313;48.552;9.370;2022-11-15T07:57:05;11.40;99.90
4602;DHT22;2313;48.552;9.370;2022-11-15T07:59:32;11.30;99.90
4602;DHT22;2313;48.552;9.370;2022-11-15T08:01:58;11.40;99.90
4602;DHT22;2313;48.552;9.370;2022-11-15T08:04:24;11.60;99.90
4602;DHT22;2313;48.552;9.370;2022-11-15T08:06:49;11.90;99.90
4602;DHT22;2313;48.552;9.370;2022-11-15T08:09:15;12.10;99.90
4602;DHT22;2313;48.552;9.370;2022-11-15T08:11:41;12.60;99.90
4602;DHT22;2313;48.552;9.370;2022-11-15T08:14:06;13.70;99.90
4602;DHT22;2313;48.552;9.370;2022-11-15T08:16:32;14.80;99.90
4602;DHT22;2313;48.552;9.370;2022-11-15T08:18:58;15.40;97.60
4602;DHT22;2313;48.552;9.370;2022-11-15T08:21:24;15.20;96.40
4602;DHT22;2313;48.552;9.370;2022-11-15T08:23:50;14.80;95.50
4602;DHT22;2313;48.552;9.370;2022-11-15T08:26:15;14.10;97.30
4602;DHT22;2313;48.552;9.370;2022-11-15T08:28:42;14.00;97.90
4602;DHT22;2313;48.552;9.370;2022-11-15T08:31:14;13.80;97.40
4602;DHT22;2313;48.552;9.370;2022-11-15T08:33:40;13.70;98.70
4602;DHT22;2313;48.552;9.370;2022-11-15T08:36:06;13.50;99.30
4602;DHT22;2313;48.552;9.370;2022-11-15T08:38:31;13.40;99.80
4602;DHT22;2313;48.552;9.370;2022-11-15T08:41:03;13.40;99.90
4602;DHT22;2313;48.552;9.370;2022-11-15T08:43:29;13.30;99.90
4602;DHT22;2313;48.552;9.370;2022-11-15T08:45:58;13.30;99.90
4602;DHT22;2313;48.552;9.370;2022-11-15T08:48:24;13.30;99.90
4602;DHT22;2313;48.552;9.370;2022-11-15T08:50:54;13.20;99.90
4602;DHT22;2313;48.552;9.370;2022-11-15T08:53:20;13.30;99.90
4602;DHT22;2313;48.552;9.370;2022-11-15T08:55:46;13.20;99.90
4602;DHT22;2313;48.552;9.370;2022-11-15T08:58:11;13.10;99.90
4602;DHT22;2313;48.552;9.370;2022-11-15T09:00:37;13.70;99.90
4602;DHT22;2313;48.552;9.370;2022-11-15T09:03:07;14.50;99.90
4602;DHT22;2313;48.552;9.370;2022-11-15T09:05:36;14.90;98.70
4602;DHT22;2313;48.552;9.370;2022-11-15T09:08:02;15.00;98.00
4602;DHT22;2313;48.552;9.370;2022-11-15T09:10:28;14.90;98.20
4602;DHT22;2313;48.552;9.370;2022-11-15T09:12:56;14.80;97.00
4602;DHT22;2313;48.552;9.370;2022-11-15T09:15:21;14.60;97.50
4602;DHT22;2313;48.552;9.370;2022-11-15T09:17:47;14.50;98.30
4602;DHT22;2313;48.552;9.370;2022-11-15T09:20:13;14.50;99.10
4602;DHT22;2313;48.552;9.370;2022-11-15T09:22:38;14.10;99.90
4602;DHT22;2313;48.552;9.370;2022-11-15T09:25:05;13.40;99.90
4602;DHT22;2313;48.552;9.370;2022-11-15T09:27:31;13.00;99.90
4602;DHT22;2313;48.552;9.370;2022-11-15T09:30:03;12.70;99.90
4602;DHT22;2313;48.552;9.370;2022-11-15T09:32:29;12.50;99.90
4602;DHT22;2313;48.552;9.370;2022-11-15T09:34:58;12.50;99.90
4602;DHT22;2313;48.552;9.370;2022-11-15T09:37:23;12.30;99.90
4602;DHT22;2313;48.552;9.370;2022-11-15T09:39:49;12.40;99.90
4602;DHT22;2313;48.552;9.370;2022-11-15T09:42:33;12.40;99.90
4602;DHT22;2313;48.552;9.370;2022-11-15T09:45:26;12.50;99.90
4602;DHT22;2313;48.552;9.370;2022-11-15T09:50:48;12.90;99.90
4602;DHT22;2313;48.552;9.370;2022-11-15T09:53:37;13.20;99.90
4602;DHT22;2313;48.552;9.370;2022-11-15T09:56:19;14.10;99.90
4602;DHT22;2313;48.552;9.370;2022-11-15T10:04:45;14.20;99.90
4602;DHT22;2313;48.552;9.370;2022-11-15T10:07:46;14.10;99.90
4602;DHT22;2313;48.552;9.370;2022-11-15T10:10:14;14.30;99.90
4602;DHT22;2313;48.552;9.370;2022-11-15T10:12:47;14.00;99.90
4602;DHT22;2313;48.552;9.370;2022-11-15T10:15:18;14.40;99.90
4602;DHT22;2313;48.552;9.370;2022-11-15T10:18:06;15.80;99.90
4602;DHT22;2313;48.552;9.370;2022-11-15T10:20:59;16.40;99.90
4602;DHT22;2313;48.552;9.370;2022-11-15T10:23:24;17.00;99.90
4602;DHT22;2313;48.552;9.370;2022-11-15T10:25:55;17.30;99.10
4602;DHT22;2313;48.552;9.370;2022-11-15T10:28:29;17.70;97.00
4602;DHT22;2313;48.552;9.370;2022-11-15T10:30:59;17.80;96.10
4602;DHT22;2313;48.552;9.370;2022-11-15T10:41:17;16.80;98.00
4602;DHT22;2313;48.552;9.370;2022-11-15T10:43:43;16.40;98.20
4602;DHT22;2313;48.552;9.370;2022-11-15T10:46:23;16.10;99.20
4602;DHT22;2313;48.552;9.370;2022-11-15T10:48:49;15.80;99.90
4602;DHT22;2313;48.552;9.370;2022-11-15T10:51:24;15.80;99.90
4602;DHT22;2313;48.552;9.370;2022-11-15T10:53:55;15.70;99.90
4602;DHT22;2313;48.552;9.370;2022-11-15T10:56:22;15.60;99.90
4602;DHT22;2313;48.552;9.370;2022-11-15T10:58:56;15.30;99.90
4602;DHT22;2313;48.552;9.370;2022-11-15T11:01:28;15.20;99.90
4602;DHT22;2313;48.552;9.370;2022-11-15T11:07:08;14.80;99.90
4602;DHT22;2313;48.552;9.370;2022-11-15T11:09:44;14.60;99.90
4602;DHT22;2313;48.552;9.370;2022-11-15T11:12:11;14.50;99.90
4602;DHT22;2313;48.552;9.370;2022-11-15T11:14:38;14.50;99.90
4602;DHT22;2313;48.552;9.370;2022-11-15T11:34:30;14.20;99.90
4602;DHT22;2313;48.552;9.370;2022-11-15T11:37:20;14.10;99.90
4602;DHT22;2313;48.552;9.370;2022-11-15T11:40:00;14.00;99.90
4602;DHT22;2313;48.552;9.370;2022-11-15T11:42:48;13.90;99.90
4602;DHT22;2313;48.552;9.370;2022-11-15T11:48:23;13.80;99.90
4602;DHT22;2313;48.552;9.370;2022-11-15T11:51:03;13.80;99.90
4602;DHT22;2313;48.552;9.370;2022-11-15T11:53:45;13.90;99.90
4602;DHT22;2313;48.552;9.370;2022-11-15T11:56:26;14.00;99.90
4602;DHT22;2313;48.552;9.370;2022-11-15T11:58:55;13.90;99.90
4602;DHT22;2313;48.552;9.370;2022-11-15T12:01:25;14.00;99.90
4602;DHT22;2313;48.552;9.370;2022-11-15T12:06:36;14.10;99.90
4602;DHT22;2313;48.552;9.370;2022-11-15T12:09:12;14.10;99.90
4602;DHT22;2313;48.552;9.370;2022-11-15T12:15:00;14.20;99.90
4602;DHT22;2313;48.552;9.370;2022-11-15T12:17:29;14.10;99.90
4602;DHT22;2313;48.552;9.370;2022-11-15T12:20:02;14.00;99.90
4602;DHT22;2313;48.552;9.370;2022-11-15T12:27:52;13.90;99.90
4602;DHT22;2313;48.552;9.370;2022-11-15T12:30:21;13.90;99.90
4602;DHT22;2313;48.552;9.370;2022-11-15T12:32:58;13.90;99.90
4602;DHT22;2313;48.552;9.370;2022-11-15T12:35:44;13.90;99.90
4602;DHT22;2313;48.552;9.370;2022-11-15T12:39:03;13.90;99.90
4602;DHT22;2313;48.552;9.370;2022-11-15T12:41:33;13.90;99.90
4602;DHT22;2313;48.552;9.370;2022-11-15T12:43:59;13.90;99.90
4602;DHT22;2313;48.552;9.370;2022-11-15T12:49:01;13.90;99.90
4602;DHT22;2313;48.552;9.370;2022-11-15T13:02:41;13.90;99.90
4602;DHT22;2313;48.552;9.370;2022-11-15T13:15:30;14.20;99.90
4602;DHT22;2313;48.552;9.370;2022-11-15T13:17:54;14.30;99.90
4602;DHT22;2313;48.552;9.370;2022-11-15T13:20:29;14.30;99.90
4602;DHT22;2313;48.552;9.370;2022-11-15T13:30:52;14.30;99.90
4602;DHT22;2313;48.552;9.370;2022-11-15T13:33:36;14.30;99.90
4602;DHT22;2313;48.552;9.370;2022-11-15T13:36:27;14.30;99.90
4602;DHT22;2313;48.552;9.370;2022-11-15T13:39:06;14.40;99.90
4602;DHT22;2313;48.552;9.370;2022-11-15T13:41:47;14.40;99.90
4602;DHT22;2313;48.552;9.370;2022-11-15T13:44:20;14.50;99.90
4602;DHT22;2313;48.552;9.370;2022-11-15T13:46:46;14.50;99.90
4602;DHT22;2313;48.552;9.370;2022-11-15T13:49:12;14.40;99.90
4602;DHT22;2313;48.552;9.370;2022-11-15T13:51:47;14.40;99.90
4602;DHT22;2313;48.552;9.370;2022-11-15T13:54:24;14.40;99.90
4602;DHT22;2313;48.552;9.370;2022-11-15T13:56:59;14.40;99.90
4602;DHT22;2313;48.552;9.370;2022-11-15T13:59:31;14.40;99.90
4602;DHT22;2313;48.552;9.370;2022-11-15T14:02:12;14.40;99.90
4602;DHT22;2313;48.552;9.370;2022-11-15T14:04:45;14.30;99.90
4602;DHT22;2313;48.552;9.370;2022-11-15T14:07:21;14.30;99.90
4602;DHT22;2313;48.552;9.370;2022-11-15T14:09:47;14.30;99.90
4602;DHT22;2313;48.552;9.370;2022-11-15T14:12:34;14.30;99.90
4602;DHT22;2313;48.552;9.370;2022-11-15T14:17:56;14.20;99.90
4602;DHT22;2313;48.552;9.370;2022-11-15T14:20:36;14.20;99.90
4602;DHT22;2313;48.552;9.370;2022-11-15T14:25:53;14.00;99.90
4602;DHT22;2313;48.552;9.370;2022-11-15T14:30:48;13.90;99.90
4602;DHT22;2313;48.552;9.370;2022-11-15T14:35:47;13.80;99.90
4602;DHT22;2313;48.552;9.370;2022-11-15T14:38:13;13.80;99.90
4602;DHT22;2313;48.552;9.370;2022-11-15T14:40:40;13.70;99.90
4602;DHT22;2313;48.552;9.370;2022-11-15T14:43:09;13.70;99.90
4602;DHT22;2313;48.552;9.370;2022-11-15T14:45:35;13.60;99.90
4602;DHT22;2313;48.552;9.370;2022-11-15T14:48:01;13.70;99.90
4602;DHT22;2313;48.552;9.370;2022-11-15T14:50:27;13.60;99.90
4602;DHT22;2313;48.552;9.370;2022-11-15T14:52:53;13.60;99.90
4602;DHT22;2313;48.552;9.370;2022-11-15T14:55:27;13.50;99.90
4602;DHT22;2313;48.552;9.370;2022-11-15T14:57:54;13.50;99.90
4602;DHT22;2313;48.552;9.370;2022-11-15T15:00:20;13.40;99.90
4602;DHT22;2313;48.552;9.370;2022-11-15T15:02:47;13.40;99.90
4602;DHT22;2313;48.552;9.370;2022-11-15T15:05:20;13.40;99.90
4602;DHT22;2313;48.552;9.370;2022-11-15T15:07:46;13.30;99.90
4602;DHT22;2313;48.552;9.370;2022-11-15T15:10:13;13.40;99.90
4602;DHT22;2313;48.552;9.370;2022-11-15T15:12:39;13.40;99.90
4602;DHT22;2313;48.552;9.370;2022-11-15T15:15:06;13.30;99.90
4602;DHT22;2313;48.552;9.370;2022-11-15T15:17:32;13.30;99.90
4602;DHT22;2313;48.552;9.370;2022-11-15T15:19:57;13.30;99.90
4602;DHT22;2313;48.552;9.370;2022-11-15T15:22:27;13.40;99.90
4602;DHT22;2313;48.552;9.370;2022-11-15T15:24:54;13.50;99.90
4602;DHT22;2313;48.552;9.370;2022-11-15T15:27:20;13.40;99.90
4602;DHT22;2313;48.552;9.370;2022-11-15T15:29:45;13.40;99.90
4602;DHT22;2313;48.552;9.370;2022-11-15T15:32:11;13.40;99.90
4602;DHT22;2313;48.552;9.370;2022-11-15T15:34:38;13.50;99.90
4602;DHT22;2313;48.552;9.370;2022-11-15T15:39:50;13.40;99.90
4602;DHT22;2313;48.552;9.370;2022-11-15T15:42:16;13.40;99.90
4602;DHT22;2313;48.552;9.370;2022-11-15T15:44:41;13.40;99.90
4602;DHT22;2313;48.552;9.370;2022-11-15T15:47:11;13.40;99.90
4602;DHT22;2313;48.552;9.370;2022-11-15T15:49:37;13.30;99.90
4602;DHT22;2313;48.552;9.370;2022-11-15T15:52:03;13.20;99.90
4602;DHT22;2313;48.552;9.370;2022-11-15T15:54:29;12.90;99.90
4602;DHT22;2313;48.552;9.370;2022-11-15T15:56:54;13.10;99.90
4602;DHT22;2313;48.552;9.370;2022-11-15T15:59:20;13.10;99.90
4602;DHT22;2313;48.552;9.370;2022-11-15T16:01:46;13.10;99.90
4602;DHT22;2313;48.552;9.370;2022-11-15T16:04:11;13.10;99.90
4602;DHT22;2313;48.552;9.370;2022-11-15T16:06:41;13.10;99.90
4602;DHT22;2313;48.552;9.370;2022-11-15T16:09:17;13.00;99.90
4602;DHT22;2313;48.552;9.370;2022-11-15T16:11:45;12.80;99.90
4602;DHT22;2313;48.552;9.370;2022-11-15T16:14:11;12.70;99.90
4602;DHT22;2313;48.552;9.370;2022-11-15T16:16:37;12.60;99.90
4602;DHT22;2313;48.552;9.370;2022-11-15T16:19:03;12.50;99.90
4602;DHT22;2313;48.552;9.370;2022-11-15T16:21:29;12.40;99.90
4602;DHT22;2313;48.552;9.370;2022-11-15T16:23:55;12.30;99.90
4602;DHT22;2313;48.552;9.370;2022-11-15T16:26:26;12.20;99.90
4602;DHT22;2313;48.552;9.370;2022-11-15T16:28:52;12.20;99.90
4602;DHT22;2313;48.552;9.370;2022-11-15T16:31:19;12.20;99.90
4602;DHT22;2313;48.552;9.370;2022-11-15T16:33:47;12.30;99.90
4602;DHT22;2313;48.552;9.370;2022-11-15T16:36:25;12.30;99.90
4602;DHT22;2313;48.552;9.370;2022-11-15T16:38:51;12.30;99.90
4602;DHT22;2313;48.552;9.370;2022-11-15T16:41:17;12.30;99.90
4602;DHT22;2313;48.552;9.370;2022-11-15T16:43:47;12.30;99.90
4602;DHT22;2313;48.552;9.370;2022-11-15T16:46:21;12.30;99.90
4602;DHT22;2313;48.552;9.370;2022-11-15T16:48:47;12.30;99.90
4602;DHT22;2313;48.552;9.370;2022-11-15T16:51:14;12.30;99.90
4602;DHT22;2313;48.552;9.370;2022-11-15T16:53:40;12.40;99.90
4602;DHT22;2313;48.552;9.370;2022-11-15T16:56:28;12.30;99.90
4602;DHT22;2313;48.552;9.370;2022-11-15T16:58:55;12.30;99.90
4602;DHT22;2313;48.552;9.370;2022-11-15T17:01:28;12.20;99.90
4602;DHT22;2313;48.552;9.370;2022-11-15T17:03:55;12.30;99.90
4602;DHT22;2313;48.552;9.370;2022-11-15T17:06:21;12.20;99.90
4602;DHT22;2313;48.552;9.370;2022-11-15T17:08:47;12.20;99.90
4602;DHT22;2313;48.552;9.370;2022-11-15T17:11:20;12.20;99.90
4602;DHT22;2313;48.552;9.370;2022-11-15T17:13:46;12.10;99.90
4602;DHT22;2313;48.552;9.370;2022-11-15T17:16:17;12.10;99.90
4602;DHT22;2313;48.552;9.370;2022-11-15T17:18:50;12.10;99.90
4602;DHT22;2313;48.552;9.370;2022-11-15T17:21:23;12.10;99.90
4602;DHT22;2313;48.552;9.370;2022-11-15T17:23:48;12.10;99.90
4602;DHT22;2313;48.552;9.370;2022-11-15T17:26:27;12.00;99.90
4602;DHT22;2313;48.552;9.370;2022-11-15T17:28:59;12.00;99.90
4602;DHT22;2313;48.552;9.370;2022-11-15T17:31:29;12.00;99.90
4602;DHT22;2313;48.552;9.370;2022-11-15T17:33:58;12.00;99.90
4602;DHT22;2313;48.552;9.370;2022-11-15T17:36:27;12.00;99.90
4602;DHT22;2313;48.552;9.370;2022-11-15T17:38:53;11.90;99.90
4602;DHT22;2313;48.552;9.370;2022-11-15T17:41:21;11.90;99.90
4602;DHT22;2313;48.552;9.370;2022-11-15T17:43:50;11.90;99.90
4602;DHT22;2313;48.552;9.370;2022-11-15T17:46:19;11.90;99.90
4602;DHT22;2313;48.552;9.370;2022-11-15T17:48:46;11.90;99.90
4602;DHT22;2313;48.552;9.370;2022-11-15T17:51:14;11.80;99.90
4602;DHT22;2313;48.552;9.370;2022-11-15T17:54:02;11.90;99.90
4602;DHT22;2313;48.552;9.370;2022-11-15T17:56:31;11.80;99.90
4602;DHT22;2313;48.552;9.370;2022-11-15T17:58:59;11.80;99.90
4602;DHT22;2313;48.552;9.370;2022-11-15T18:01:49;11.70;99.90
4602;DHT22;2313;48.552;9.370;2022-11-15T18:04:38;11.60;99.90
4602;DHT22;2313;48.552;9.370;2022-11-15T18:07:11;11.60;99.90
4602;DHT22;2313;48.552;9.370;2022-11-15T18:09:38;11.50;99.90
4602;DHT22;2313;48.552;9.370;2022-11-15T18:12:10;11.50;99.90
4602;DHT22;2313;48.552;9.370;2022-11-15T18:14:39;11.50;99.90
4602;DHT22;2313;48.552;9.370;2022-11-15T18:17:13;11.50;99.90
4602;DHT22;2313;48.552;9.370;2022-11-15T18:19:48;11.50;99.90